Página principal
METAR-TAF:

METAR-TAF

Aeroportos :

Fuerteventura, Espanha

latitude: 28-27N, longitude: 013-52W, altura: 22 m

Observação actual do tempo

O boletim foi feito há 28 minutos, às 20:30 UTC
Vento 17 kt de norte
Temperatura 24°C
Humidade 69%
Pressão 1016 hPa
Visibilidade 10 km ou mais
Poucas nuvensa uma altura de 2700 ft
Nuvens fragmentadasa uma altura de 3600 ft

METAR: GCFV 172030Z 36017KT 9999 FEW027 BKN036 24/18 Q1016

Hora: 21:58 (20:58 UTC)

Previsão

O boletim foi feito há 58 minutos, às 20:00 UTC
Previsão válida de 17 às 21 UTC a 18 às 21 UTC
Vento 12 kt de norte
Visibilidade 10 km ou mais
Nuvens fragmentadasa uma altura de 3000 ft

TAF: GCFV 172000Z 1721/1821 36012KT 9999 BKN030 TX26/1815Z TN21/1805Z

Observações e previsões do tempo de mais de 4000 aeroportos (mensagens METAR e TAF).

As estações disponíveis são os pontos amarelos e vermelhos sobre o mapa.

Mova o rato sobre o mapa para ver o nome da estação.

Depois clique no ponto para visualizar as observações e previsões meteorológicas.

Para alterar o mapa : clique nos botões verdes com uma cruz preta para aumentar o zoom; no botão verde com uma pitada de zoom; ou nas setas verdes para mapas adjacentes.


METAR-TAF: